createdAt,value
2019-05-03T00:00:59.674Z,6.50
2019-05-03T00:03:32.015Z,6.50
2019-05-03T00:06:05.262Z,6.50
2019-05-03T00:08:36.193Z,6.50
2019-05-03T00:11:06.897Z,6.50
2019-05-03T00:13:37.380Z,6.50
2019-05-03T00:16:24.453Z,6.50
2019-05-03T00:18:55.169Z,6.50
2019-05-03T00:21:25.655Z,6.50
2019-05-03T00:23:56.409Z,6.50
2019-05-03T00:26:26.896Z,6.40
2019-05-03T00:28:57.450Z,6.40
2019-05-03T00:31:27.928Z,6.40
2019-05-03T00:34:02.110Z,6.40
2019-05-03T00:36:33.859Z,6.40
2019-05-03T00:39:21.606Z,6.40
2019-05-03T00:41:52.630Z,6.40
2019-05-03T00:44:23.077Z,6.40
2019-05-03T00:46:53.599Z,6.40
2019-05-03T00:49:24.116Z,6.40
2019-05-03T00:51:54.559Z,6.40
2019-05-03T00:54:25.074Z,6.40
2019-05-03T00:56:55.881Z,6.40
2019-05-03T00:59:26.595Z,6.40
2019-05-03T01:01:57.085Z,6.40
2019-05-03T01:04:27.581Z,6.40
2019-05-03T01:06:58.365Z,6.40
2019-05-03T01:09:31.741Z,6.40
2019-05-03T01:12:02.085Z,6.40
2019-05-03T01:14:33.313Z,6.40
2019-05-03T01:17:03.918Z,6.40
2019-05-03T01:19:34.381Z,6.40
2019-05-03T01:22:05.082Z,6.40
2019-05-03T01:24:35.825Z,6.40
2019-05-03T01:27:06.536Z,6.40
2019-05-03T01:29:37.053Z,6.40
2019-05-03T01:32:07.516Z,6.40
2019-05-03T01:34:38.035Z,6.40
2019-05-03T01:37:08.872Z,6.40
2019-05-03T01:39:39.296Z,6.40
2019-05-03T01:42:11.816Z,6.40
2019-05-03T01:44:42.725Z,6.40
2019-05-03T01:47:17.539Z,6.40
2019-05-03T01:49:55.264Z,6.40
2019-05-03T01:52:27.385Z,6.40
2019-05-03T01:54:57.841Z,6.40
2019-05-03T01:57:28.857Z,6.40
2019-05-03T02:00:00.276Z,6.40
2019-05-03T02:02:42.002Z,6.40
2019-05-03T02:05:16.512Z,6.40
2019-05-03T02:08:02.219Z,6.40
2019-05-03T02:10:37.015Z,6.40
2019-05-03T02:13:08.663Z,6.30
2019-05-03T02:15:42.025Z,6.30
2019-05-03T02:18:15.470Z,6.30
2019-05-03T02:20:46.767Z,6.30
2019-05-03T02:23:17.975Z,6.30
2019-05-03T02:25:58.403Z,6.20
2019-05-03T02:28:23.620Z,6.30
2019-05-03T02:30:54.979Z,6.20
2019-05-03T02:33:26.589Z,6.30
2019-05-03T02:35:57.663Z,6.30
2019-05-03T02:38:29.542Z,6.30
2019-05-03T02:41:02.929Z,6.30
2019-05-03T02:43:36.373Z,6.30
2019-05-03T02:46:25.860Z,6.30
2019-05-03T02:49:06.548Z,6.30
2019-05-03T02:51:37.495Z,6.30
2019-05-03T02:54:09.638Z,6.30
2019-05-03T02:56:41.052Z,6.30
2019-05-03T02:59:15.462Z,6.30
2019-05-03T03:01:46.586Z,6.30
2019-05-03T03:04:18.649Z,6.30
2019-05-03T03:06:55.612Z,6.30
2019-05-03T03:09:27.497Z,6.30
2019-05-03T03:12:02.213Z,6.30
2019-05-03T03:14:36.273Z,6.30
2019-05-03T03:17:11.084Z,6.30
2019-05-03T03:19:47.973Z,6.20
2019-05-03T03:22:25.853Z,6.30
2019-05-03T03:25:00.429Z,6.20
2019-05-03T03:27:37.414Z,6.20
2019-05-03T03:30:32.278Z,6.20
2019-05-03T03:33:09.322Z,6.20
2019-05-03T03:35:48.932Z,6.20
2019-05-03T03:38:25.901Z,6.20
2019-05-03T03:40:58.991Z,6.20
2019-05-03T03:47:17.150Z,6.20
2019-05-03T03:49:51.474Z,6.20
2019-05-03T03:52:49.124Z,6.20
2019-05-03T03:55:26.165Z,6.10
2019-05-03T03:58:06.184Z,6.10
2019-05-03T04:00:37.706Z,6.10
2019-05-03T04:03:08.642Z,6.10
2019-05-03T04:05:39.575Z,6.10
2019-05-03T04:08:10.608Z,6.10
2019-05-03T04:10:42.151Z,6.00
2019-05-03T04:13:41.233Z,6.10
2019-05-03T04:16:29.922Z,6.10
2019-05-03T04:19:07.539Z,6.10
2019-05-03T04:21:38.641Z,6.10
2019-05-03T04:24:16.123Z,6.10
2019-05-03T04:26:57.759Z,6.10
2019-05-03T04:29:28.049Z,6.10
2019-05-03T04:31:58.897Z,6.10
2019-05-03T04:34:35.807Z,6.10
2019-05-03T04:37:06.494Z,6.10
2019-05-03T04:39:36.964Z,6.10
2019-05-03T04:42:07.521Z,6.10
2019-05-03T04:44:38.050Z,6.10
2019-05-03T04:47:08.508Z,6.10
2019-05-03T04:49:39.005Z,6.10
2019-05-03T04:52:09.536Z,6.10
2019-05-03T04:54:41.863Z,6.10
2019-05-03T04:57:12.328Z,6.10
2019-05-03T04:59:45.007Z,6.10
2019-05-03T05:02:15.985Z,6.10
2019-05-03T05:04:46.576Z,6.20
2019-05-03T05:07:17.161Z,6.20
2019-05-03T05:09:47.673Z,6.20
2019-05-03T05:12:18.141Z,6.20
2019-05-03T05:14:48.618Z,6.20
2019-05-03T05:17:20.905Z,6.20
2019-05-03T05:19:54.921Z,6.30
2019-05-03T05:22:27.333Z,6.30
2019-05-03T05:24:59.183Z,6.30
2019-05-03T05:27:48.830Z,6.20
2019-05-03T05:30:17.056Z,6.30
2019-05-03T05:32:48.525Z,6.20
2019-05-03T05:35:20.422Z,6.20
2019-05-03T05:37:50.939Z,6.20
2019-05-03T05:40:35.833Z,6.20
2019-05-03T05:43:07.955Z,6.20
2019-05-03T05:45:50.684Z,6.20
2019-05-03T05:48:25.799Z,6.20
2019-05-03T05:51:24.869Z,6.20
2019-05-03T05:53:59.750Z,6.10
2019-05-03T06:46:30.219Z,4.80
2019-05-03T06:49:08.610Z,4.80
2019-05-03T06:51:39.979Z,4.80
2019-05-03T06:54:08.951Z,4.90
2019-05-03T06:56:41.403Z,4.90
2019-05-03T07:12:11.954Z,5.30
2019-05-03T07:40:16.393Z,6.10
2019-05-03T07:42:46.910Z,6.20
2019-05-03T08:51:16.641Z,9.10
2019-05-03T08:54:05.437Z,9.60
2019-05-03T08:56:35.979Z,9.80
2019-05-03T09:06:40.286Z,10.40
2019-05-03T09:17:00.861Z,9.60
2019-05-03T09:19:49.959Z,9.30
2019-05-03T09:22:50.155Z,9.50
2019-05-03T09:25:42.871Z,9.60
2019-05-03T09:29:11.228Z,9.90
2019-05-03T09:31:44.975Z,10.10
2019-05-03T09:34:30.460Z,10.20
2019-05-03T09:37:18.715Z,10.40
2019-05-03T09:39:56.180Z,10.60
2019-05-03T09:42:39.341Z,10.70
2019-05-03T10:15:16.889Z,11.00
2019-05-03T10:17:59.204Z,11.00
2019-05-03T10:20:48.204Z,11.20
2019-05-03T11:00:46.274Z,9.80
2019-05-03T11:03:17.025Z,9.40
2019-05-03T11:05:47.506Z,9.50
2019-05-03T11:08:19.512Z,9.60
2019-05-03T11:11:00.208Z,9.80
2019-05-03T11:16:32.261Z,11.40
2019-05-03T11:25:55.460Z,12.20
2019-05-03T11:28:27.362Z,11.70
2019-05-03T11:34:22.607Z,11.30
2019-05-03T11:37:22.141Z,11.20
2019-05-03T11:39:55.859Z,11.40
2019-05-03T12:02:34.113Z,14.00
2019-05-03T12:05:42.362Z,13.90
2019-05-03T12:08:14.742Z,13.30
2019-05-03T12:17:21.008Z,13.20
2019-05-03T12:22:38.653Z,13.20
2019-05-03T12:25:11.301Z,13.80
2019-05-03T12:27:44.576Z,14.10
2019-05-03T12:30:15.429Z,14.50
2019-05-03T12:33:06.001Z,15.00
2019-05-03T12:35:37.802Z,15.40
2019-05-03T12:38:21.927Z,15.80
2019-05-03T12:41:06.196Z,15.90
2019-05-03T12:43:42.470Z,15.10
2019-05-03T12:46:21.693Z,14.00
2019-05-03T12:49:05.238Z,13.30
2019-05-03T12:52:00.130Z,13.00
2019-05-03T12:55:19.256Z,13.00
2019-05-03T13:07:50.594Z,12.90
2019-05-03T13:10:26.469Z,13.10
2019-05-03T13:16:35.360Z,13.50
2019-05-03T13:26:28.702Z,14.60
2019-05-03T13:39:35.971Z,13.50
2019-05-03T13:42:28.101Z,13.90
2019-05-03T13:45:04.843Z,13.90
2019-05-03T13:47:35.106Z,13.70
2019-05-03T13:50:15.559Z,13.60
2019-05-03T13:55:52.235Z,13.80
2019-05-03T13:58:41.565Z,13.80
2019-05-03T14:05:45.945Z,13.50
2019-05-03T14:21:07.811Z,13.30
2019-05-03T14:27:06.985Z,13.10
2019-05-03T14:29:41.571Z,12.80
2019-05-03T14:32:25.711Z,12.90
2019-05-03T14:34:58.470Z,12.90
2019-05-03T14:37:29.175Z,13.00
2019-05-03T14:40:00.429Z,13.10
2019-05-03T14:42:45.756Z,12.90
2019-05-03T14:45:21.049Z,12.70
2019-05-03T15:16:34.394Z,12.80
2019-05-03T15:36:16.512Z,13.60
2019-05-03T15:54:57.358Z,10.80
2019-05-03T16:04:33.249Z,10.80
2019-05-03T16:11:07.890Z,10.90
2019-05-03T16:14:04.473Z,11.10
2019-05-03T16:59:21.002Z,9.70
2019-05-03T17:05:34.493Z,9.40
2019-05-03T17:14:18.757Z,10.50
2019-05-03T17:16:51.584Z,10.50
2019-05-03T17:20:11.539Z,10.60
2019-05-03T17:26:04.202Z,11.30
2019-05-03T17:50:15.372Z,8.80
2019-05-03T18:13:01.455Z,7.50
2019-05-03T18:43:45.164Z,6.70
2019-05-03T22:02:26.217Z,4.70
2019-05-03T22:05:08.112Z,4.70
2019-05-03T22:34:15.894Z,4.60
2019-05-03T22:36:46.396Z,4.70
2019-05-03T22:39:17.103Z,4.60
2019-05-03T22:45:25.603Z,4.60
2019-05-03T22:52:28.058Z,4.60
2019-05-03T23:10:58.073Z,4.50
